createdAt,value
2019-05-02T00:00:49.010Z,1010.8
2019-05-02T00:05:54.710Z,1010.8
2019-05-02T00:10:59.847Z,1010.8
2019-05-02T00:16:08.995Z,1010.7
2019-05-02T00:21:14.170Z,1010.6
2019-05-02T00:26:19.013Z,1010.6
2019-05-02T00:31:24.422Z,1010.6
2019-05-02T00:36:29.276Z,1010.6
2019-05-02T00:41:42.358Z,1010.6
2019-05-02T00:46:47.482Z,1010.5
2019-05-02T00:51:56.505Z,1010.5
2019-05-02T00:57:01.639Z,1010.4
2019-05-02T01:02:09.215Z,1010.3
2019-05-02T01:07:14.616Z,1010.3
2019-05-02T01:12:29.433Z,1010.2
2019-05-02T01:17:35.476Z,1010.1
2019-05-02T01:22:40.606Z,1010
2019-05-02T01:27:45.463Z,1010
2019-05-02T01:32:50.317Z,1010
2019-05-02T01:37:59.162Z,1009.9
2019-05-02T01:43:04.290Z,1009.8
2019-05-02T01:48:12.979Z,1009.6
2019-05-02T01:53:18.666Z,1009.6
2019-05-02T01:58:25.971Z,1009.6
2019-05-02T02:03:31.377Z,1009.5
2019-05-02T02:08:36.423Z,1009.4
2019-05-02T02:13:41.559Z,1009.3
2019-05-02T02:18:46.126Z,1009.3
2019-05-02T02:23:53.284Z,1009.2
2019-05-02T02:28:58.409Z,1009.1
2019-05-02T02:34:04.103Z,1009.1
2019-05-02T02:39:18.753Z,1009
2019-05-02T02:44:23.873Z,1009
2019-05-02T02:49:29.000Z,1009
2019-05-02T02:54:46.758Z,1008.9
2019-05-02T02:59:51.329Z,1008.9
2019-05-02T03:04:56.730Z,1008.9
2019-05-02T03:10:09.882Z,1008.8
2019-05-02T03:15:27.699Z,1008.7
2019-05-02T03:20:44.582Z,1008.7
2019-05-02T03:25:53.764Z,1008.6
2019-05-02T03:30:59.171Z,1008.6
2019-05-02T03:36:04.302Z,1008.6
2019-05-02T03:41:24.594Z,1008.6
2019-05-02T03:46:29.994Z,1008.5
2019-05-02T03:51:35.400Z,1008.5
2019-05-02T03:56:53.361Z,1008.5
2019-05-02T04:01:58.126Z,1008.4
2019-05-02T04:07:06.003Z,1008.4
2019-05-02T04:12:23.771Z,1008.4
2019-05-02T04:17:39.640Z,1008.4
2019-05-02T04:22:53.216Z,1008.4
2019-05-02T04:27:58.632Z,1008.4
2019-05-02T04:33:04.320Z,1008.4
2019-05-02T04:38:53.336Z,1008.4
2019-05-02T04:44:04.207Z,1008.4
2019-05-02T04:49:12.216Z,1008.4
2019-05-02T04:54:33.842Z,1008.4
2019-05-02T04:59:41.345Z,1008.3
2019-05-02T05:04:51.985Z,1008.3
2019-05-02T05:10:05.264Z,1008.4
2019-05-02T05:15:51.820Z,1008.3
2019-05-02T05:20:59.515Z,1008.3
2019-05-02T05:26:09.806Z,1008.3
2019-05-02T05:31:30.849Z,1008.3
2019-05-02T05:36:38.703Z,1008.3
2019-05-02T05:41:54.732Z,1008.2
2019-05-02T05:47:00.877Z,1008.2
2019-05-02T05:52:09.238Z,1008.2
2019-05-02T05:57:23.065Z,1008.2
2019-05-02T06:02:30.605Z,1008.2
2019-05-02T06:07:48.972Z,1008.2
2019-05-02T06:12:53.828Z,1008.2
2019-05-02T06:18:07.276Z,1008.1
2019-05-02T06:23:12.956Z,1008.1
2019-05-02T06:28:18.414Z,1008.1
2019-05-02T06:33:32.338Z,1008.1
2019-05-02T06:38:37.633Z,1008.2
2019-05-02T06:43:49.869Z,1008.1
2019-05-02T06:48:56.165Z,1008.1
2019-05-02T06:54:01.584Z,1008.1
2019-05-02T06:59:07.293Z,1008
2019-05-02T07:04:17.263Z,1008
2019-05-02T07:09:23.382Z,1008
2019-05-02T07:14:28.753Z,1007.9
2019-05-02T07:19:34.452Z,1008
2019-05-02T07:24:39.043Z,1008
2019-05-02T07:29:44.214Z,1008
2019-05-02T07:34:52.123Z,1008
2019-05-02T07:39:57.278Z,1008
2019-05-02T07:45:11.721Z,1008
2019-05-02T07:50:17.417Z,1008
2019-05-02T07:55:22.273Z,1008
2019-05-02T08:00:27.698Z,1008
2019-05-02T08:05:32.299Z,1008.1
2019-05-02T08:10:37.431Z,1008
2019-05-02T08:15:52.829Z,1008
2019-05-02T08:20:59.656Z,1008
2019-05-02T08:26:04.848Z,1008.1
2019-05-02T08:31:18.841Z,1008
2019-05-02T08:36:24.361Z,1008
2019-05-02T08:41:28.943Z,1008
2019-05-02T08:46:34.356Z,1008
2019-05-02T08:51:42.041Z,1008
2019-05-02T08:56:47.452Z,1008
2019-05-02T09:01:54.155Z,1008
2019-05-02T09:07:03.087Z,1008
2019-05-02T09:12:22.794Z,1008.1
2019-05-02T09:17:57.090Z,1008.1
2019-05-02T09:23:03.436Z,1008
2019-05-02T09:28:08.847Z,1007.9
2019-05-02T09:33:14.978Z,1008
2019-05-02T09:38:22.695Z,1008
2019-05-02T09:43:42.827Z,1008
2019-05-02T09:48:47.961Z,1007.8
2019-05-02T09:54:07.757Z,1007.8
2019-05-02T09:59:34.386Z,1007.8
2019-05-02T10:04:44.681Z,1007.8
2019-05-02T10:09:52.354Z,1007.7
2019-05-02T10:14:56.942Z,1007.7
2019-05-02T10:20:04.612Z,1007.6
2019-05-02T10:25:09.186Z,1007.5
2019-05-02T10:30:18.186Z,1007.5
2019-05-02T10:35:44.118Z,1007.5
2019-05-02T10:41:06.542Z,1007.4
2019-05-02T10:46:13.137Z,1007.4
2019-05-02T10:51:18.555Z,1007.3
2019-05-02T10:56:24.779Z,1007.3
2019-05-02T11:01:29.636Z,1007.3
2019-05-02T11:06:47.493Z,1007.1
2019-05-02T11:11:54.871Z,1007.1
2019-05-02T11:17:01.966Z,1007
2019-05-02T11:22:07.369Z,1006.9
2019-05-02T11:27:14.705Z,1006.9
2019-05-02T11:32:19.567Z,1006.8
2019-05-02T11:37:25.860Z,1006.9
2019-05-02T11:42:32.850Z,1006.7
2019-05-02T11:47:38.260Z,1006.7
2019-05-02T11:52:44.976Z,1006.7
2019-05-02T11:57:52.161Z,1006.7
2019-05-02T12:03:02.811Z,1006.6
2019-05-02T12:08:13.797Z,1006.6
2019-05-02T12:13:19.208Z,1006.5
2019-05-02T12:18:26.254Z,1006.5
2019-05-02T12:23:36.066Z,1006.4
2019-05-02T12:28:43.094Z,1006.5
2019-05-02T12:33:48.234Z,1006.4
2019-05-02T12:38:55.318Z,1006.4
2019-05-02T12:44:02.558Z,1006.3
2019-05-02T12:49:07.678Z,1006.4
2019-05-02T12:54:15.546Z,1006.3
2019-05-02T12:59:20.151Z,1006.4
2019-05-02T13:04:27.434Z,1006.3
2019-05-02T13:09:34.501Z,1006.3
2019-05-02T13:14:39.931Z,1006.3
2019-05-02T13:20:05.851Z,1006.3
2019-05-02T13:25:15.390Z,1006.2
2019-05-02T13:30:22.392Z,1006.2
2019-05-02T13:35:26.703Z,1006
2019-05-02T13:40:33.672Z,1006
2019-05-02T13:45:39.103Z,1006
2019-05-02T13:50:45.028Z,1005.9
2019-05-02T13:55:52.218Z,1005.7
2019-05-02T14:00:57.298Z,1005.8
2019-05-02T14:06:04.779Z,1005.7
2019-05-02T14:11:10.200Z,1005.8
2019-05-02T14:16:15.632Z,1005.7
2019-05-02T14:21:22.557Z,1005.8
2019-05-02T14:26:35.532Z,1005.7
2019-05-02T14:31:41.722Z,1005.6
2019-05-02T14:36:47.145Z,1005.5
2019-05-02T14:41:54.133Z,1005.5
2019-05-02T14:46:59.566Z,1005.5
2019-05-02T14:52:09.755Z,1005.5
2019-05-02T14:57:28.505Z,1005.5
2019-05-02T15:02:53.027Z,1005.3
2019-05-02T15:08:08.507Z,1005.3
2019-05-02T15:13:15.814Z,1005.5
2019-05-02T15:18:22.633Z,1005.4
2019-05-02T15:23:28.002Z,1005.3
2019-05-02T15:28:43.394Z,1005.3
2019-05-02T15:33:49.101Z,1005.2
2019-05-02T15:38:55.388Z,1005.5
2019-05-02T15:44:02.231Z,1005.6
2019-05-02T15:49:08.241Z,1005.7
2019-05-02T15:54:22.693Z,1005.8
2019-05-02T15:59:27.455Z,1005.9
2019-05-02T16:04:33.974Z,1006
2019-05-02T16:09:41.496Z,1006
2019-05-02T16:14:47.099Z,1006.1
2019-05-02T16:20:07.506Z,1006.1
2019-05-02T16:25:14.580Z,1006.3
2019-05-02T16:30:19.740Z,1006.4
2019-05-02T16:35:25.135Z,1006.4
2019-05-02T16:40:37.515Z,1006.3
2019-05-02T16:45:46.931Z,1006.3
2019-05-02T16:50:52.071Z,1006.4
2019-05-02T16:56:08.847Z,1006.4
2019-05-02T17:01:29.716Z,1006.4
2019-05-02T17:06:35.463Z,1006.4
2019-05-02T17:11:42.408Z,1006.4
2019-05-02T17:16:57.767Z,1006.3
2019-05-02T17:22:04.118Z,1006.3
2019-05-02T17:27:24.566Z,1006.3
2019-05-02T17:32:41.402Z,1006.3
2019-05-02T17:37:54.689Z,1006.3
2019-05-02T17:43:09.048Z,1006.3
2019-05-02T17:48:20.386Z,1006.3
2019-05-02T17:53:24.993Z,1006.3
2019-05-02T17:58:32.287Z,1006.3
2019-05-02T18:03:38.700Z,1006.4
2019-05-02T18:08:56.021Z,1006.5
2019-05-02T18:14:07.042Z,1006.5
2019-05-02T18:19:26.183Z,1006.6
2019-05-02T18:24:37.305Z,1006.5
2019-05-02T18:29:48.242Z,1006.6
2019-05-02T18:35:07.511Z,1006.7
2019-05-02T18:40:14.474Z,1006.7
2019-05-02T18:45:19.330Z,1006.8
2019-05-02T18:50:25.313Z,1006.8
2019-05-02T18:55:32.261Z,1006.8
2019-05-02T19:00:43.873Z,1006.8
2019-05-02T19:05:59.717Z,1007
2019-05-02T19:11:14.207Z,1006.9
2019-05-02T19:16:32.306Z,1007
2019-05-02T19:21:41.860Z,1007
2019-05-02T19:26:57.072Z,1007
2019-05-02T19:32:02.487Z,1007.1
2019-05-02T19:37:08.184Z,1007.1
2019-05-02T19:42:27.442Z,1007.2
2019-05-02T19:47:34.055Z,1007.3
2019-05-02T19:52:44.606Z,1007.3
2019-05-02T19:57:50.018Z,1007.3
2019-05-02T20:02:55.431Z,1007.4
2019-05-02T20:08:02.379Z,1007.4
2019-05-02T20:13:07.731Z,1007.4
2019-05-02T20:18:14.262Z,1007.5
2019-05-02T20:23:37.636Z,1007.5
2019-05-02T20:28:45.155Z,1007.4
2019-05-02T20:33:52.460Z,1007.5
2019-05-02T20:38:57.866Z,1007.6
2019-05-02T20:44:04.304Z,1007.6
2019-05-02T20:49:09.432Z,1007.6
2019-05-02T20:54:15.531Z,1007.7
2019-05-02T20:59:22.993Z,1007.6
2019-05-02T21:04:28.128Z,1007.7
2019-05-02T21:09:35.305Z,1007.8
2019-05-02T21:14:42.110Z,1007.9
2019-05-02T21:19:47.023Z,1008
2019-05-02T21:24:53.958Z,1007.9
2019-05-02T21:29:59.374Z,1007.9
2019-05-02T21:35:05.500Z,1007.9
2019-05-02T21:40:12.686Z,1008
2019-05-02T21:45:17.542Z,1008
2019-05-02T21:50:24.659Z,1008
2019-05-02T21:55:30.062Z,1008.1
2019-05-02T22:00:35.718Z,1008.1
2019-05-02T22:05:42.798Z,1008.1
2019-05-02T22:10:47.929Z,1008.1
2019-05-02T22:15:54.030Z,1008
2019-05-02T22:21:01.572Z,1008.1
2019-05-02T22:26:06.017Z,1008.1
2019-05-02T22:31:13.429Z,1008.1
2019-05-02T22:36:18.834Z,1008.1
2019-05-02T22:41:25.052Z,1008.1
2019-05-02T22:46:31.736Z,1008.2
2019-05-02T22:51:37.277Z,1008.3
2019-05-02T22:56:44.508Z,1008.3
2019-05-02T23:01:49.913Z,1008.4
2019-05-02T23:06:55.883Z,1008.3
2019-05-02T23:12:02.794Z,1008.3
2019-05-02T23:17:07.373Z,1008.3
2019-05-02T23:22:15.139Z,1008.3
2019-05-02T23:27:19.983Z,1008.4
2019-05-02T23:32:26.802Z,1008.4
2019-05-02T23:37:34.406Z,1008.4
2019-05-02T23:42:41.594Z,1008.4
2019-05-02T23:47:46.346Z,1008.4
2019-05-02T23:52:51.833Z,1008.3
2019-05-02T23:57:57.233Z,1008.3
